createdAt,value
2022-08-18T00:01:22.635Z,6.33
2022-08-18T00:03:56.367Z,6.28
2022-08-18T00:06:29.534Z,6.25
2022-08-18T00:09:04.567Z,6.50
2022-08-18T00:11:41.035Z,7.05
2022-08-18T00:14:21.691Z,6.45
2022-08-18T00:16:53.912Z,7.15
2022-08-18T00:19:45.380Z,6.63
2022-08-18T00:22:15.880Z,6.65
2022-08-18T00:24:51.507Z,7.07
2022-08-18T00:27:23.275Z,6.97
2022-08-18T00:29:54.165Z,7.78
2022-08-18T00:32:27.496Z,7.20
2022-08-18T00:34:55.669Z,7.20
2022-08-18T00:37:24.933Z,7.18
2022-08-18T00:39:54.066Z,7.45
2022-08-18T00:42:31.030Z,7.07
2022-08-18T00:45:05.624Z,7.13
2022-08-18T00:47:42.535Z,7.25
2022-08-18T00:50:42.743Z,6.63
2022-08-18T00:53:24.320Z,7.03
2022-08-18T00:55:54.417Z,7.10
2022-08-18T00:59:27.724Z,7.18
2022-08-18T01:02:05.285Z,7.40
2022-08-18T01:04:45.187Z,7.25
2022-08-18T01:07:25.620Z,7.32
2022-08-18T01:09:53.499Z,7.00
2022-08-18T01:12:45.469Z,7.20
2022-08-18T01:15:09.018Z,7.40
2022-08-18T01:18:22.508Z,7.25
2022-08-18T01:21:44.527Z,7.18
2022-08-18T01:24:14.747Z,7.13
2022-08-18T01:26:50.584Z,7.10
2022-08-18T01:29:20.291Z,8.82
2022-08-18T01:31:56.822Z,7.47
2022-08-18T01:34:28.546Z,7.55
2022-08-18T01:36:56.750Z,7.63
2022-08-18T01:41:11.010Z,7.13
2022-08-18T01:42:17.405Z,7.68
2022-08-18T01:44:51.195Z,7.63
2022-08-18T01:47:20.955Z,7.53
2022-08-18T01:49:48.443Z,7.40
2022-08-18T01:52:21.993Z,7.75
2022-08-18T01:54:51.563Z,7.47
2022-08-18T01:57:21.834Z,7.38
2022-08-18T01:59:49.197Z,7.80
2022-08-18T02:02:32.956Z,7.90
2022-08-18T02:05:10.416Z,8.17
2022-08-18T02:07:38.487Z,7.35
2022-08-18T02:10:12.108Z,8.32
2022-08-18T02:12:42.417Z,8.05
2022-08-18T02:15:11.271Z,7.60
2022-08-18T02:17:43.085Z,7.87
2022-08-18T02:20:16.795Z,7.95
2022-08-18T02:22:45.342Z,7.75
2022-08-18T02:25:14.503Z,8.38
2022-08-18T02:27:42.082Z,7.63
2022-08-18T02:30:13.816Z,7.68
2022-08-18T02:32:42.149Z,7.70
2022-08-18T02:35:12.133Z,7.40
2022-08-18T02:37:42.653Z,7.90
2022-08-18T02:40:14.881Z,7.65
2022-08-18T02:42:45.579Z,7.95
2022-08-18T02:45:14.476Z,7.55
2022-08-18T02:47:42.970Z,7.63
2022-08-18T02:50:14.107Z,7.72
2022-08-18T02:52:41.501Z,8.13
2022-08-18T02:55:12.577Z,7.88
2022-08-18T02:57:47.778Z,8.60
2022-08-18T03:00:18.887Z,8.13
2022-08-18T03:02:51.634Z,8.27
2022-08-18T03:05:20.006Z,8.47
2022-08-18T03:07:47.383Z,8.30
2022-08-18T03:10:33.243Z,7.93
2022-08-18T03:13:01.992Z,8.55
2022-08-18T03:15:29.801Z,8.55
2022-08-18T03:17:58.249Z,8.73
2022-08-18T03:20:30.125Z,9.50
2022-08-18T03:22:58.951Z,8.95
2022-08-18T03:25:26.204Z,9.30
2022-08-18T03:27:53.560Z,8.93
2022-08-18T03:30:23.628Z,9.13
2022-08-18T03:32:51.234Z,8.00
2022-08-18T03:35:18.732Z,8.80
2022-08-18T03:38:07.733Z,8.95
2022-08-18T03:40:35.575Z,8.98
2022-08-18T03:43:50.148Z,9.00
2022-08-18T03:45:55.668Z,9.23
2022-08-18T03:48:22.920Z,9.50
2022-08-18T03:50:50.277Z,8.63
2022-08-18T03:53:18.666Z,8.65
2022-08-18T03:55:47.248Z,8.97
2022-08-18T03:58:15.218Z,8.23
2022-08-18T04:00:42.568Z,9.30
2022-08-18T04:03:11.270Z,9.07
2022-08-18T04:05:41.672Z,8.90
2022-08-18T04:08:10.575Z,8.73
2022-08-18T04:10:38.098Z,8.50
2022-08-18T04:13:05.844Z,8.63
2022-08-18T04:15:33.471Z,8.73
2022-08-18T04:18:08.668Z,8.90
2022-08-18T04:20:36.343Z,8.98
2022-08-18T04:23:03.740Z,8.20
2022-08-18T04:25:39.011Z,8.32
2022-08-18T04:28:06.426Z,8.50
2022-08-18T04:30:33.767Z,9.02
2022-08-18T04:33:02.670Z,8.52
2022-08-18T04:35:33.528Z,8.40
2022-08-18T04:38:00.805Z,7.93
2022-08-18T04:40:28.157Z,8.20
2022-08-18T04:42:55.688Z,7.88
2022-08-18T04:45:22.925Z,7.97
2022-08-18T04:47:50.941Z,8.07
2022-08-18T04:50:18.557Z,8.43
2022-08-18T04:53:04.442Z,8.73
2022-08-18T04:55:31.697Z,8.70
2022-08-18T04:57:59.612Z,7.55
2022-08-18T05:00:27.225Z,8.32
2022-08-18T05:02:56.958Z,8.50
2022-08-18T05:05:24.556Z,7.82
2022-08-18T05:07:51.934Z,7.80
2022-08-18T05:10:19.314Z,8.13
2022-08-18T05:12:48.851Z,8.40
2022-08-18T05:15:18.909Z,8.82
2022-08-18T05:17:49.939Z,8.47
2022-08-18T05:20:18.479Z,8.57
2022-08-18T05:22:48.149Z,8.57
2022-08-18T05:25:16.301Z,8.07
2022-08-18T05:27:44.686Z,7.78
2022-08-18T05:30:13.592Z,7.88
2022-08-18T05:32:50.099Z,8.03
2022-08-18T05:35:44.763Z,7.53
2022-08-18T05:38:28.706Z,8.10
2022-08-18T05:41:20.905Z,8.35
2022-08-18T05:43:52.019Z,7.93
2022-08-18T05:46:39.104Z,7.68
2022-08-18T05:49:06.623Z,7.95
2022-08-18T05:51:45.942Z,8.35
2022-08-18T05:54:34.790Z,8.45
2022-08-18T05:57:10.089Z,9.20
2022-08-18T05:59:43.062Z,8.43
2022-08-18T06:02:47.207Z,7.80
2022-08-18T06:05:30.933Z,8.60
2022-08-18T06:08:06.123Z,8.48
2022-08-18T06:10:33.932Z,7.90
2022-08-18T06:13:03.233Z,8.82
2022-08-18T06:15:51.967Z,7.83
2022-08-18T06:18:56.413Z,8.45
2022-08-18T06:21:57.210Z,7.70
2022-08-18T06:25:02.121Z,8.23
2022-08-18T06:28:01.284Z,8.27
2022-08-18T06:31:09.978Z,8.15
2022-08-18T06:33:46.011Z,7.88
2022-08-18T06:36:48.322Z,7.85
2022-08-18T06:39:51.988Z,8.27
2022-08-18T06:42:32.655Z,7.05
2022-08-18T06:45:14.038Z,7.25
2022-08-18T06:48:15.303Z,7.47
2022-08-18T06:51:00.964Z,7.70
2022-08-18T06:54:06.207Z,7.97
2022-08-18T06:56:39.308Z,7.55
2022-08-18T06:59:18.582Z,7.93
2022-08-18T07:01:52.115Z,7.47
2022-08-18T07:04:44.189Z,7.23
2022-08-18T07:07:40.933Z,7.95
2022-08-18T07:10:35.839Z,7.68
2022-08-18T07:13:13.134Z,7.07
2022-08-18T07:15:41.603Z,7.15
2022-08-18T07:18:10.194Z,7.30
2022-08-18T07:20:55.489Z,7.35
2022-08-18T07:23:40.309Z,6.70
2022-08-18T07:26:17.542Z,7.07
2022-08-18T07:28:52.545Z,7.85
2022-08-18T07:31:42.926Z,7.57
2022-08-18T07:34:26.583Z,7.80
2022-08-18T07:37:23.944Z,7.03
2022-08-18T07:40:20.596Z,6.47
2022-08-18T07:43:01.140Z,7.43
2022-08-18T07:45:45.526Z,7.70
2022-08-18T07:48:40.088Z,7.57
2022-08-18T07:51:25.177Z,7.00
2022-08-18T07:54:45.024Z,7.55
2022-08-18T07:57:21.417Z,7.85
2022-08-18T08:00:02.629Z,7.33
2022-08-18T08:02:55.306Z,8.02
2022-08-18T08:05:44.520Z,7.00
2022-08-18T08:08:33.298Z,8.07
2022-08-18T08:11:33.852Z,7.18
2022-08-18T08:14:24.256Z,7.32
2022-08-18T08:17:11.291Z,6.65
2022-08-18T08:20:09.062Z,6.30
2022-08-18T08:23:00.341Z,6.13
2022-08-18T08:26:05.001Z,6.55
2022-08-18T08:28:41.276Z,6.07
2022-08-18T08:31:58.051Z,6.07
2022-08-18T08:34:31.434Z,5.65
2022-08-18T08:37:06.213Z,6.10
2022-08-18T08:40:20.526Z,6.57
2022-08-18T08:42:50.535Z,6.17
2022-08-18T08:45:36.681Z,5.63
2022-08-18T08:48:34.906Z,6.13
2022-08-18T08:51:33.555Z,6.30
2022-08-18T08:54:23.602Z,6.38
2022-08-18T08:56:56.481Z,5.85
2022-08-18T08:59:25.212Z,5.82
2022-08-18T09:02:37.663Z,5.75
2022-08-18T09:05:19.861Z,5.82
2022-08-18T09:07:59.085Z,5.30
2022-08-18T09:10:55.248Z,5.40
2022-08-18T09:13:58.707Z,5.38
2022-08-18T09:16:54.112Z,5.53
2022-08-18T09:20:36.064Z,5.72
2022-08-18T09:23:18.448Z,4.90
2022-08-18T09:25:52.537Z,5.00
2022-08-18T09:28:30.785Z,5.13
2022-08-18T09:31:08.678Z,6.03
2022-08-18T09:33:45.871Z,5.20
2022-08-18T09:36:27.997Z,4.90
2022-08-18T09:39:20.583Z,5.30
2022-08-18T09:42:09.391Z,5.20
2022-08-18T09:44:49.178Z,4.90
2022-08-18T09:47:22.282Z,4.85
2022-08-18T09:49:57.778Z,4.30
2022-08-18T09:52:51.356Z,5.25
2022-08-18T09:55:21.050Z,5.10
2022-08-18T09:58:41.609Z,4.93
2022-08-18T10:01:52.159Z,4.63
2022-08-18T10:04:50.698Z,4.32
2022-08-18T10:07:19.910Z,4.70
2022-08-18T10:10:59.487Z,4.20
2022-08-18T10:13:48.884Z,4.60
2022-08-18T10:16:38.261Z,4.78
2022-08-18T10:19:44.686Z,4.50
2022-08-18T10:22:15.933Z,4.50
2022-08-18T10:24:57.173Z,4.50
2022-08-18T10:27:45.651Z,4.18
2022-08-18T10:30:56.205Z,3.78
2022-08-18T10:34:01.735Z,4.57
2022-08-18T10:36:55.037Z,4.72
2022-08-18T10:39:58.419Z,4.10
2022-08-18T10:42:41.260Z,4.53
2022-08-18T10:45:32.493Z,4.30
2022-08-18T10:50:52.927Z,4.35
2022-08-18T10:53:59.589Z,4.47
2022-08-18T10:56:35.814Z,4.68
2022-08-18T11:03:51.373Z,3.58
2022-08-18T11:06:25.990Z,3.67
2022-08-18T11:09:02.157Z,3.97
2022-08-18T11:11:53.206Z,3.72
2022-08-18T11:15:22.356Z,3.97
2022-08-18T11:18:43.470Z,3.60
2022-08-18T11:21:43.580Z,3.88
2022-08-18T11:24:21.208Z,3.67
2022-08-18T11:27:02.662Z,3.78
2022-08-18T11:29:41.496Z,3.80
2022-08-18T11:32:21.130Z,4.10
2022-08-18T11:34:55.282Z,3.90
2022-08-18T11:37:51.638Z,4.28
2022-08-18T11:43:41.667Z,4.65
2022-08-18T11:46:30.639Z,4.80
2022-08-18T11:49:24.128Z,4.07
2022-08-18T11:52:29.604Z,4.30
2022-08-18T11:55:23.989Z,4.50
2022-08-18T11:57:58.996Z,4.78
2022-08-18T12:00:47.036Z,3.97
2022-08-18T12:03:38.289Z,3.80
2022-08-18T12:06:29.850Z,4.20
2022-08-18T12:09:07.778Z,4.20
2022-08-18T12:11:51.425Z,4.82
2022-08-18T12:14:32.723Z,4.80
2022-08-18T12:17:03.391Z,4.57
2022-08-18T12:22:15.625Z,4.68
2022-08-18T12:24:46.833Z,4.10
2022-08-18T12:30:16.418Z,4.50
2022-08-18T12:33:00.800Z,4.70
2022-08-18T12:35:32.023Z,4.60
2022-08-18T12:38:04.987Z,4.25
2022-08-18T12:40:41.900Z,5.05
2022-08-18T12:43:34.496Z,4.43
2022-08-18T12:46:02.513Z,4.13
2022-08-18T12:48:33.899Z,4.38
2022-08-18T12:51:05.742Z,4.43
2022-08-18T12:53:38.194Z,3.90
2022-08-18T12:56:31.940Z,4.32
2022-08-18T12:59:04.219Z,3.55
2022-08-18T13:01:34.796Z,3.70
2022-08-18T13:04:14.076Z,4.03
2022-08-18T13:06:59.889Z,4.10
2022-08-18T13:09:53.944Z,4.70
2022-08-18T13:12:24.081Z,4.10
2022-08-18T13:14:55.243Z,3.60
2022-08-18T13:17:30.188Z,3.70
2022-08-18T13:20:09.874Z,3.30
2022-08-18T13:22:42.038Z,3.35
2022-08-18T13:25:32.397Z,4.57
2022-08-18T13:28:02.930Z,3.50
2022-08-18T13:30:35.565Z,3.20
2022-08-18T13:33:05.550Z,2.67
2022-08-18T13:35:54.570Z,3.45
2022-08-18T13:38:26.107Z,3.60
2022-08-18T13:40:59.874Z,3.00
2022-08-18T13:43:39.588Z,4.18
2022-08-18T13:46:10.192Z,3.30
2022-08-18T13:48:41.776Z,3.33
2022-08-18T13:51:17.766Z,3.55
2022-08-18T13:53:57.613Z,3.28
2022-08-18T13:56:32.313Z,3.47
2022-08-18T13:58:59.914Z,3.43
2022-08-18T14:01:51.706Z,3.17
2022-08-18T14:04:20.514Z,3.70
2022-08-18T14:06:56.328Z,3.22
2022-08-18T14:09:27.862Z,3.58
2022-08-18T14:12:29.636Z,3.90
2022-08-18T14:14:59.996Z,3.83
2022-08-18T14:17:28.208Z,3.45
2022-08-18T14:23:11.614Z,3.33
2022-08-18T14:25:57.608Z,3.42
2022-08-18T14:28:29.132Z,3.65
2022-08-18T14:30:59.753Z,3.70
2022-08-18T14:33:49.556Z,3.45
2022-08-18T14:36:18.247Z,3.15
2022-08-18T14:38:45.772Z,2.80
2022-08-18T14:41:15.090Z,3.05
2022-08-18T14:44:00.495Z,3.05
2022-08-18T14:46:36.202Z,3.50
2022-08-18T14:49:10.895Z,3.80
2022-08-18T14:51:42.894Z,3.33
2022-08-18T14:54:10.715Z,3.72
2022-08-18T14:56:45.357Z,3.50
2022-08-18T14:59:25.676Z,4.00
2022-08-18T15:01:53.492Z,3.63
2022-08-18T15:04:33.631Z,3.78
2022-08-18T15:07:10.508Z,4.38
2022-08-18T15:09:40.889Z,4.50
2022-08-18T15:14:43.427Z,3.30
2022-08-18T15:17:14.625Z,3.33
2022-08-18T15:20:00.556Z,3.72
2022-08-18T15:22:48.083Z,3.80
2022-08-18T15:25:56.490Z,3.45
2022-08-18T15:28:27.153Z,3.85
2022-08-18T15:33:42.476Z,3.47
2022-08-18T15:38:45.351Z,3.40
2022-08-18T15:41:31.595Z,3.47
2022-08-18T15:44:00.879Z,3.83
2022-08-18T15:46:29.496Z,7.30
2022-08-18T15:48:57.576Z,2.63
2022-08-18T15:51:26.071Z,2.90
2022-08-18T15:54:25.339Z,2.72
2022-08-18T15:56:57.595Z,3.22
2022-08-18T15:59:33.206Z,2.25
2022-08-18T16:02:19.122Z,2.60
2022-08-18T16:04:46.700Z,2.83
2022-08-18T16:07:15.743Z,2.88
2022-08-18T16:09:45.277Z,2.67
2022-08-18T16:12:32.586Z,2.90
2022-08-18T16:15:03.859Z,2.95
2022-08-18T16:17:36.648Z,2.58
2022-08-18T16:20:26.956Z,2.58
2022-08-18T16:22:54.561Z,2.75
2022-08-18T16:25:21.981Z,4.20
2022-08-18T16:27:49.637Z,2.78
2022-08-18T16:30:22.939Z,2.75
2022-08-18T16:33:08.571Z,2.90
2022-08-18T16:35:37.962Z,3.55
2022-08-18T16:38:09.119Z,2.80
2022-08-18T16:40:37.698Z,2.67
2022-08-18T16:43:09.240Z,3.10
2022-08-18T16:45:42.831Z,3.30
2022-08-18T16:48:15.198Z,3.08
2022-08-18T16:50:45.497Z,3.10
2022-08-18T16:53:12.840Z,3.30
2022-08-18T16:55:55.835Z,3.97
2022-08-18T16:58:43.168Z,3.60
2022-08-18T17:01:48.916Z,3.30
2022-08-18T17:04:23.375Z,2.90
2022-08-18T17:06:54.062Z,3.13
2022-08-18T17:09:23.406Z,3.28
2022-08-18T17:11:52.450Z,2.65
2022-08-18T17:14:32.165Z,3.08
2022-08-18T17:17:01.077Z,3.10
2022-08-18T17:19:38.030Z,3.10
2022-08-18T17:22:24.428Z,2.30
2022-08-18T17:25:02.017Z,2.50
2022-08-18T17:27:37.630Z,2.10
2022-08-18T17:30:13.570Z,2.42
2022-08-18T17:33:02.643Z,3.25
2022-08-18T17:35:44.520Z,2.63
2022-08-18T17:38:34.132Z,3.05
2022-08-18T17:41:05.672Z,2.42
2022-08-18T17:46:28.154Z,2.80
2022-08-18T17:49:18.160Z,2.92
2022-08-18T17:51:55.338Z,3.63
2022-08-18T17:55:40.175Z,2.80
2022-08-18T17:58:29.345Z,2.97
2022-08-18T18:00:57.509Z,3.35
2022-08-18T18:06:10.101Z,2.95
2022-08-18T18:09:05.235Z,3.00
2022-08-18T18:11:56.907Z,3.30
2022-08-18T18:14:34.872Z,4.00
2022-08-18T18:20:15.601Z,4.00
2022-08-18T18:25:34.330Z,3.03
2022-08-18T18:28:03.195Z,3.50
2022-08-18T18:30:33.032Z,3.97
2022-08-18T18:33:15.232Z,3.70
2022-08-18T18:36:17.491Z,3.53
2022-08-18T18:39:12.099Z,3.90
2022-08-18T18:41:57.750Z,3.95
2022-08-18T18:44:52.493Z,3.83
2022-08-18T18:48:47.379Z,3.70
2022-08-18T18:51:11.078Z,3.60
